Terminal Aerodrome Forecast
Issued by NWS

Current Version | Previous Version | Graphics & Text | Print | Product List | Glossary On
Versions: 1 2 3 4 5 6 7 8 9 10 11 12 13 14 15 16 17 18 19 20 21 22 23 24 25 26 27 28 29 30 31 32 33 34 35 36 37 38
000
FTUS41 KRNK 141425 AAA
TAFLWB
TAF AMD
KLWB 141425Z 1414/1512 02004KT P6SM BKN018 OVC025
     FM141700 25004KT P6SM BKN035
     FM142300 00000KT P6SM OVC035
     FM150400 00000KT 4SM BR OVC025
     FM150700 00000KT 1/4SM FG OVC001=

USA.gov is the U.S. government's official web portal to all federal, state and local government web resources and services.